Time;durP1;ratioP1;P1;durP2;ratioP2;P2;SDS_P1;SDS_P2;PMS_P1;PMS_P2;Temp;Humidity;BMP_temperature;BMP_pressure;BME280_temperature;BME280_humidity;BME280_pressure;Samples;Min_cycle;Max_cycle;Signal;HPM_P1;HPM_P2
2022/02/06 00:00:40;;;;;;;4.57;2.20;;;;;;;1.80;100.00;98748.47;5056146;28;20616;-65
2022/02/06 00:03:07;;;;;;;5.50;2.40;;;;;;;1.84;100.00;98750.94;5056068;28;20604;-65
2022/02/06 00:05:33;;;;;;;5.17;2.10;;;;;;;1.83;100.00;98744.03;5055882;28;20231;-65
2022/02/06 00:08:06;;;;;;;3.20;2.00;;;;;;;1.86;100.00;98738.75;5055704;28;20220;-65
2022/02/06 00:10:33;;;;;;;3.63;2.20;;;;;;;1.91;100.00;98730.81;5055960;28;20212;-65
2022/02/06 00:12:59;;;;;;;5.63;2.10;;;;;;;1.91;100.00;98731.66;5055489;28;20208;-65
2022/02/06 00:15:27;;;;;;;5.43;2.33;;;;;;;1.94;100.00;98730.72;5055793;28;20216;-65
2022/02/06 00:17:53;;;;;;;5.57;2.10;;;;;;;1.89;100.00;98727.41;5055840;28;20576;-65
2022/02/06 00:20:21;;;;;;;3.67;2.13;;;;;;;1.94;100.00;98720.28;5054119;28;20215;-65
2022/02/06 00:22:51;;;;;;;3.80;2.00;;;;;;;2.05;99.87;98719.13;5055433;28;20222;-65
2022/02/06 00:25:27;;;;;;;5.47;2.30;;;;;;;2.03;99.71;98717.47;5055314;28;20261;-65
2022/02/06 00:28:04;;;;;;;4.63;1.83;;;;;;;2.08;100.00;98716.44;5055577;28;20235;-65
2022/02/06 00:30:36;;;;;;;4.33;2.07;;;;;;;2.03;100.00;98712.25;5055209;28;20685;-66
2022/02/06 00:33:06;;;;;;;4.40;2.30;;;;;;;2.07;100.00;98711.25;5055416;28;20598;-65
2022/02/06 00:35:50;;;;;;;3.30;2.10;;;;;;;2.09;100.00;98705.09;5053293;28;20235;-65
2022/02/06 00:38:33;;;;;;;3.43;1.83;;;;;;;2.14;99.29;98698.03;5055429;28;20208;-65
2022/02/06 00:43:43;;;;;;;3.40;1.90;;;;;;;2.19;99.49;98695.28;5040161;28;20212;-65
2022/02/06 00:46:12;;;;;;;3.97;1.93;;;;;;;2.16;99.32;98693.66;5053265;28;20236;-65
2022/02/06 00:48:42;;;;;;;3.43;1.80;;;;;;;2.29;98.43;98687.19;5055182;28;20220;-65
2022/02/06 00:51:13;;;;;;;5.67;2.77;;;;;;;2.26;98.37;98682.03;5055029;28;20227;-65
2022/02/06 00:53:41;;;;;;;2.67;1.83;;;;;;;2.31;97.86;98684.53;5054823;28;20251;-65
2022/02/06 00:56:09;;;;;;;3.30;2.33;;;;;;;2.32;97.56;98676.66;5054823;28;20212;-65
2022/02/06 00:58:36;;;;;;;4.73;2.40;;;;;;;2.29;98.37;98676.75;5055043;28;20223;-65
2022/02/06 01:01:02;;;;;;;3.80;2.10;;;;;;;2.28;98.41;98668.97;5048371;28;20216;-65
2022/02/06 01:03:29;;;;;;;5.40;2.37;;;;;;;2.32;98.05;98660.19;5054880;28;20236;-65
2022/02/06 01:05:55;;;;;;;5.10;2.90;;;;;;;2.29;98.24;98665.47;5054633;28;20244;-65
2022/02/06 01:08:22;;;;;;;5.10;2.20;;;;;;;2.29;98.34;98671.53;5054701;28;20212;-65
2022/02/06 01:10:49;;;;;;;5.03;2.10;;;;;;;2.24;99.39;98663.00;5054451;28;20212;-66
2022/02/06 01:13:23;;;;;;;3.73;2.23;;;;;;;2.23;99.60;98656.06;5053056;28;20215;-65
2022/02/06 01:15:55;;;;;;;7.20;1.97;;;;;;;2.28;99.10;98656.75;5054646;28;20589;-66
2022/02/06 01:18:27;;;;;;;7.23;2.30;;;;;;;2.31;99.13;98648.00;5054257;28;20684;-65
2022/02/06 01:21:01;;;;;;;5.03;2.17;;;;;;;2.19;99.94;98654.44;5054607;28;20584;-65
2022/02/06 01:23:31;;;;;;;2.70;2.00;;;;;;;2.25;99.39;98659.47;5054626;28;20222;-65
2022/02/06 01:26:01;;;;;;;4.90;2.33;;;;;;;2.29;99.07;98655.91;5054226;28;20724;-65
2022/02/06 01:28:35;;;;;;;4.97;2.47;;;;;;;2.36;98.88;98652.22;5054057;28;20226;-65
2022/02/06 01:31:12;;;;;;;6.37;2.50;;;;;;;2.31;99.24;98654.09;5054159;28;20699;-65
2022/02/06 01:33:45;;;;;;;4.07;1.70;;;;;;;2.38;99.00;98649.56;5054352;28;20227;-65
2022/02/06 01:36:23;;;;;;;4.73;2.23;;;;;;;2.39;98.98;98657.31;5054284;28;20313;-65
2022/02/06 01:39:04;;;;;;;2.90;1.63;;;;;;;2.37;98.89;98661.75;5039767;28;20216;-66
2022/02/06 01:41:36;;;;;;;4.23;1.70;;;;;;;2.38;99.12;98660.00;5054315;28;20259;-65
2022/02/06 01:44:08;;;;;;;3.03;1.80;;;;;;;2.43;98.93;98656.34;5053890;28;20216;-65
2022/02/06 01:46:48;;;;;;;4.93;2.50;;;;;;;2.40;99.12;98650.38;5054044;28;20236;-65
2022/02/06 02:00:37;;;;;;;2.90;1.73;;;;;;;2.54;98.94;98649.06;5053642;28;20691;-65
2022/02/06 02:03:14;;;;;;;2.27;1.53;;;;;;;2.56;98.27;98636.81;4980271;28;20378;-65
2022/02/06 02:06:13;;;;;;;3.67;1.70;;;;;;;2.60;97.68;98630.63;5024322;28;20287;-65
2022/02/06 02:09:18;;;;;;;3.63;1.87;;;;;;;2.70;97.49;98626.81;5038962;28;20231;-65
2022/02/06 02:12:00;;;;;;;1.97;1.50;;;;;;;2.78;96.57;98630.06;5041675;28;20234;-65
2022/02/06 02:17:33;;;;;;;4.47;1.80;;;;;;;2.97;95.38;98610.31;5038757;28;20705;-65
2022/02/06 02:20:23;;;;;;;2.77;1.57;;;;;;;3.00;94.69;98594.53;5053076;28;20213;-65
2022/02/06 02:23:11;;;;;;;5.13;1.63;;;;;;;3.10;93.57;98575.09;5053156;28;20223;-65
2022/02/06 02:29:01;;;;;;;5.53;1.57;;;;;;;3.14;93.60;98573.22;5037677;28;20223;-65
2022/02/06 02:31:52;;;;;;;4.20;1.70;;;;;;;3.13;93.28;98569.75;5051214;28;20694;-65
2022/02/06 02:45:24;;;;;;;3.10;1.30;;;;;;;3.27;92.36;98554.50;5052742;28;20688;-65
2022/02/06 02:47:54;;;;;;;5.43;1.30;;;;;;;3.35;91.85;98549.84;5052826;28;20311;-65
2022/02/06 02:50:23;;;;;;;4.90;1.43;;;;;;;3.33;92.29;98536.00;5053011;28;20586;-65
2022/02/06 02:53:09;;;;;;;4.40;1.50;;;;;;;3.35;91.62;98534.19;5053059;28;20215;-65
2022/02/06 02:55:49;;;;;;;1.50;1.40;;;;;;;3.33;91.91;98530.78;5039331;28;20263;-65
2022/02/06 02:58:24;;;;;;;3.80;1.60;;;;;;;3.40;91.90;98524.44;5053030;28;20305;-65
2022/02/06 03:00:59;;;;;;;2.67;1.63;;;;;;;3.34;91.60;98527.25;5052835;28;20218;-65
2022/02/06 03:03:28;;;;;;;4.10;1.83;;;;;;;3.38;91.37;98518.41;5040178;28;20605;-65
2022/02/06 03:05:57;;;;;;;3.13;1.50;;;;;;;3.36;91.61;98517.59;5052505;28;20251;-65
2022/02/06 03:08:24;;;;;;;4.23;1.50;;;;;;;3.36;91.43;98508.91;5052542;28;20211;-65
2022/02/06 03:10:55;;;;;;;6.03;1.47;;;;;;;3.40;91.32;98500.06;5050161;28;20259;-65
2022/02/06 03:13:25;;;;;;;4.20;1.50;;;;;;;3.37;91.23;98489.72;5052618;28;20782;-65
2022/02/06 03:16:02;;;;;;;4.80;1.33;;;;;;;3.38;91.38;98492.28;5052696;28;20686;-66
2022/02/06 03:18:33;;;;;;;3.00;1.27;;;;;;;3.44;91.42;98485.97;5052403;28;20266;-65
2022/02/06 03:21:01;;;;;;;3.73;1.50;;;;;;;3.41;90.77;98486.94;5052938;28;20553;-65
2022/02/06 03:23:28;;;;;;;1.83;1.40;;;;;;;3.47;91.04;98485.84;5051091;28;20269;-67
2022/02/06 03:25:56;;;;;;;4.13;1.50;;;;;;;3.47;90.94;98470.19;5055244;28;20248;-66
2022/02/06 03:28:23;;;;;;;2.70;1.50;;;;;;;3.55;90.62;98470.78;5056668;28;20216;-65
2022/02/06 03:30:50;;;;;;;2.17;1.20;;;;;;;3.58;90.18;98473.28;5054253;28;20581;-65
2022/02/06 03:33:16;;;;;;;2.90;1.20;;;;;;;3.59;90.56;98470.59;5056313;28;20212;-66
2022/02/06 03:35:44;;;;;;;3.40;2.13;;;;;;;3.60;90.45;98474.09;5056734;28;20219;-65
2022/02/06 03:38:11;;;;;;;2.50;1.30;;;;;;;3.64;90.36;98473.91;5056477;28;20242;-66
2022/02/06 03:40:42;;;;;;;2.10;1.30;;;;;;;3.66;89.43;98471.25;5056206;28;20678;-65
2022/02/06 03:43:15;;;;;;;2.40;1.50;;;;;;;3.61;89.60;98468.78;5056157;28;20686;-66
2022/02/06 03:45:45;;;;;;;2.43;1.57;;;;;;;3.60;90.36;98467.06;5056206;28;20585;-66
2022/02/06 03:48:16;;;;;;;2.43;1.63;;;;;;;3.66;90.09;98469.47;5054421;28;20217;-65
2022/02/06 03:50:49;;;;;;;3.57;1.47;;;;;;;3.66;89.63;98461.63;5056117;28;20273;-66
2022/02/06 03:53:18;;;;;;;1.70;1.27;;;;;;;3.68;90.29;98470.25;5055959;28;20213;-66
2022/02/06 03:55:46;;;;;;;2.60;1.20;;;;;;;3.67;90.05;98468.56;5056180;28;20243;-65
2022/02/06 03:58:13;;;;;;;2.20;1.23;;;;;;;3.69;90.06;98461.53;5055801;28;20706;-65
2022/02/06 04:00:40;;;;;;;1.47;1.23;;;;;;;3.69;90.02;98464.16;5056163;28;20229;-65
2022/02/06 04:03:07;;;;;;;3.13;1.53;;;;;;;3.66;89.98;98448.56;5056036;28;20241;-65
2022/02/06 04:05:33;;;;;;;3.27;1.60;;;;;;;3.67;89.78;98450.25;5055817;28;20232;-66
2022/02/06 04:08:00;;;;;;;3.50;1.50;;;;;;;3.71;89.86;98433.56;5055694;28;20219;-65
2022/02/06 04:10:34;;;;;;;5.00;1.73;;;;;;;3.75;89.93;98432.56;5056029;28;20216;-65
2022/02/06 04:13:02;;;;;;;2.33;1.30;;;;;;;3.84;89.86;98429.56;5055975;28;20590;-65
2022/02/06 04:15:38;;;;;;;2.00;1.10;;;;;;;3.86;88.79;98435.59;5053877;28;20761;-66
2022/02/06 04:18:11;;;;;;;1.57;1.10;;;;;;;3.93;88.41;98423.16;5042355;28;20716;-65
2022/02/06 04:20:37;;;;;;;3.13;1.10;;;;;;;4.00;88.47;98419.38;5055568;28;20253;-65
2022/02/06 04:23:04;;;;;;;3.10;1.10;;;;;;;3.98;88.01;98414.22;5055490;28;20216;-65
2022/02/06 04:25:30;;;;;;;2.67;1.00;;;;;;;4.04;86.66;98411.34;5055571;28;20232;-65
2022/02/06 04:27:57;;;;;;;2.27;1.33;;;;;;;4.10;87.19;98405.88;5055780;28;20219;-66
2022/02/06 04:30:23;;;;;;;4.97;1.30;;;;;;;4.18;86.39;98402.97;5055720;28;20220;-65
2022/02/06 04:32:53;;;;;;;5.33;1.50;;;;;;;4.21;86.08;98408.94;5055613;28;20219;-66
2022/02/06 04:35:20;;;;;;;3.10;1.10;;;;;;;4.25;85.82;98402.69;5054823;28;20296;-66
2022/02/06 04:38:01;;;;;;;5.13;1.87;;;;;;;4.21;85.82;98398.47;5055253;28;20282;-66
2022/02/06 04:40:42;;;;;;;3.87;1.03;;;;;;;4.23;85.60;98404.47;5053831;28;20612;-65
2022/02/06 04:46:33;;;;;;;2.10;1.50;;;;;;;4.30;85.51;98407.72;5043478;28;20247;-66
2022/02/06 04:49:30;;;;;;;4.60;1.33;;;;;;;4.24;86.11;98403.59;5054980;28;20709;-66
2022/02/06 04:52:34;;;;;;;2.50;1.33;;;;;;;4.23;85.73;98406.28;5045110;28;20295;-66
2022/02/06 04:55:17;;;;;;;1.80;1.40;;;;;;;4.27;85.12;98389.56;5054875;28;20216;-65
2022/02/06 05:12:06;;;;;;;4.33;1.53;;;;;;;4.27;85.44;98345.91;5043439;28;20258;-65
2022/02/06 05:23:00;;;;;;;3.40;1.30;;;;;;;4.32;84.54;98343.97;5051960;28;20395;-65
2022/02/06 05:30:59;;;;;;;4.93;1.40;;;;;;;4.30;85.00;98350.16;5037748;28;20707;-65
2022/02/06 05:33:26;;;;;;;3.87;1.73;;;;;;;4.21;85.30;98359.25;5052816;28;20221;-65
2022/02/06 05:35:52;;;;;;;2.63;1.30;;;;;;;4.10;86.14;98357.97;5054311;28;20223;-65
2022/02/06 05:38:20;;;;;;;1.77;0.97;;;;;;;4.07;87.05;98358.94;5054298;28;20259;-65
2022/02/06 05:40:47;;;;;;;3.83;1.40;;;;;;;4.17;86.47;98365.50;5054363;28;20224;-65
2022/02/06 05:43:13;;;;;;;2.60;1.70;;;;;;;4.16;86.67;98369.03;5054226;28;20223;-66
2022/02/06 05:45:40;;;;;;;4.67;1.13;;;;;;;4.22;86.14;98368.78;5054124;28;20249;-66
2022/02/06 05:48:06;;;;;;;2.37;1.23;;;;;;;4.34;86.33;98373.50;5052860;28;20690;-66
2022/02/06 05:50:33;;;;;;;4.10;1.23;;;;;;;4.39;86.44;98384.66;5053745;28;20700;-65
2022/02/06 05:53:00;;;;;;;2.73;1.10;;;;;;;4.42;86.85;98371.47;5053722;28;20682;-65
2022/02/06 05:55:28;;;;;;;2.93;1.50;;;;;;;4.44;86.89;98374.00;5053969;28;20223;-65
2022/02/06 05:57:54;;;;;;;3.07;1.43;;;;;;;4.47;86.51;98369.47;5052051;28;20221;-65
2022/02/06 06:00:21;;;;;;;2.87;1.40;;;;;;;4.51;85.43;98368.44;5049964;28;20213;-66
2022/02/06 06:02:47;;;;;;;3.70;1.30;;;;;;;4.46;85.93;98378.25;5044648;28;20267;-65
2022/02/06 06:05:14;;;;;;;3.20;1.30;;;;;;;4.52;85.75;98375.38;5053487;28;20219;-66
2022/02/06 06:07:43;;;;;;;3.53;1.20;;;;;;;4.60;85.38;98365.47;5053614;28;20365;-66
2022/02/06 06:10:11;;;;;;;3.53;1.60;;;;;;;4.58;85.36;98356.81;5040584;28;20240;-66
2022/02/06 06:12:40;;;;;;;4.10;1.30;;;;;;;4.57;85.66;98344.63;5053396;28;20679;-65
2022/02/06 06:15:07;;;;;;;5.63;1.50;;;;;;;4.52;86.02;98343.97;5053618;28;20211;-65
2022/02/06 06:17:36;;;;;;;3.23;1.30;;;;;;;4.57;85.48;98344.63;5053447;28;20220;-66
2022/02/06 06:20:04;;;;;;;3.07;1.50;;;;;;;4.58;85.78;98346.34;5053623;28;20219;-66
2022/02/06 06:22:30;;;;;;;3.83;1.30;;;;;;;4.53;86.04;98345.66;5053447;28;20216;-65
2022/02/06 06:25:01;;;;;;;1.70;1.37;;;;;;;4.51;86.68;98363.22;5051863;28;20221;-66
2022/02/06 06:27:27;;;;;;;3.07;1.10;;;;;;;4.55;86.91;98356.09;5053225;28;20244;-66
2022/02/06 06:29:55;;;;;;;4.70;1.43;;;;;;;4.55;86.83;98351.72;5053261;28;20212;-66
2022/02/06 06:32:22;;;;;;;3.80;1.50;;;;;;;4.57;86.94;98349.88;5053305;28;20218;-66
2022/02/06 06:34:49;;;;;;;3.37;1.30;;;;;;;4.59;86.46;98348.03;5053190;28;20213;-65
2022/02/06 06:37:17;;;;;;;3.27;1.60;;;;;;;4.62;85.83;98339.19;5052975;28;20218;-66
2022/02/06 06:39:45;;;;;;;5.33;1.50;;;;;;;4.55;86.61;98322.94;5053221;28;20224;-65
2022/02/06 06:42:14;;;;;;;4.50;1.50;;;;;;;4.47;87.76;98314.53;5053118;28;20221;-66
2022/02/06 06:44:42;;;;;;;2.73;1.30;;;;;;;4.47;87.13;98311.91;5052996;28;20223;-66
2022/02/06 06:47:11;;;;;;;2.60;1.30;;;;;;;4.44;87.87;98311.19;5052652;28;20255;-65
2022/02/06 06:49:38;;;;;;;2.80;1.30;;;;;;;4.40;87.83;98310.47;5052276;28;20278;-65
2022/02/06 06:52:05;;;;;;;4.83;1.40;;;;;;;4.46;87.57;98323.28;5052652;28;20214;-65
2022/02/06 06:54:37;;;;;;;2.90;1.43;;;;;;;4.53;87.04;98309.03;5053215;28;20217;-65
2022/02/06 06:57:09;;;;;;;3.03;1.60;;;;;;;4.57;87.53;98307.13;5050792;28;20248;-65
2022/02/06 06:59:57;;;;;;;3.07;1.27;;;;;;;4.68;86.14;98304.91;5052912;28;20214;-65
2022/02/06 07:02:29;;;;;;;4.33;1.50;;;;;;;4.71;86.68;98300.41;5052445;28;20267;-66
2022/02/06 07:04:58;;;;;;;2.83;1.30;;;;;;;4.71;86.07;98310.03;5050608;28;20213;-65
2022/02/06 07:07:25;;;;;;;4.73;1.50;;;;;;;4.72;85.97;98299.50;5052621;28;20707;-65
2022/02/06 07:09:51;;;;;;;2.87;1.47;;;;;;;4.80;85.66;98307.00;5052882;28;20217;-65
2022/02/06 07:12:18;;;;;;;3.90;1.23;;;;;;;4.78;85.66;98301.00;5053237;28;20217;-65
2022/02/06 07:14:45;;;;;;;5.17;1.83;;;;;;;4.86;85.92;98299.75;5052445;28;20216;-65
2022/02/06 07:17:12;;;;;;;4.87;1.30;;;;;;;4.92;84.79;98289.00;5039287;28;20220;-65
2022/02/06 07:19:40;;;;;;;4.50;1.40;;;;;;;4.97;85.24;98276.56;5052596;28;20208;-65
2022/02/06 07:22:08;;;;;;;2.93;1.10;;;;;;;4.94;85.50;98271.44;5052718;28;20227;-65
2022/02/06 07:24:36;;;;;;;4.80;1.73;;;;;;;4.91;85.72;98282.06;5052775;28;20579;-65
2022/02/06 07:27:05;;;;;;;3.03;1.30;;;;;;;4.99;85.47;98272.09;5052407;28;20236;-65
2022/02/06 07:29:32;;;;;;;2.13;1.67;;;;;;;5.08;85.05;98263.78;5052665;28;20215;-65
2022/02/06 07:32:00;;;;;;;2.13;1.47;;;;;;;5.12;85.10;98265.38;5052271;28;20214;-65
2022/02/06 07:34:27;;;;;;;1.77;1.30;;;;;;;5.13;84.04;98255.75;5052633;28;20249;-65
2022/02/06 07:36:55;;;;;;;4.20;1.57;;;;;;;5.12;85.07;98247.03;5052381;28;20671;-65
2022/02/06 07:39:21;;;;;;;3.90;1.53;;;;;;;5.17;85.49;98236.34;5052378;28;20220;-65
2022/02/06 07:41:47;;;;;;;4.60;1.53;;;;;;;5.19;85.56;98242.38;5050763;28;20222;-65
2022/02/06 07:44:14;;;;;;;2.83;1.37;;;;;;;5.22;85.06;98224.75;5052256;28;20219;-65
2022/02/06 07:46:44;;;;;;;5.27;2.13;;;;;;;5.25;85.20;98229.00;5052325;28;20604;-65
2022/02/06 07:49:11;;;;;;;3.40;1.50;;;;;;;5.33;84.79;98232.09;5052529;28;20236;-65
2022/02/06 07:51:39;;;;;;;2.53;1.30;;;;;;;5.37;82.84;98231.88;5052388;28;20577;-65
2022/02/06 07:54:07;;;;;;;4.90;1.33;;;;;;;5.48;84.24;98220.88;5052426;28;20221;-65
2022/02/06 07:56:34;;;;;;;3.53;1.40;;;;;;;5.49;84.71;98210.31;5052530;28;20595;-65
2022/02/06 07:59:01;;;;;;;4.30;1.43;;;;;;;5.46;83.90;98210.50;5052527;28;20225;-65
2022/02/06 08:01:28;;;;;;;3.53;1.50;;;;;;;5.42;84.49;98210.69;5052258;28;20214;-66
2022/02/06 08:03:54;;;;;;;5.07;1.57;;;;;;;5.46;84.90;98202.63;5052076;28;20241;-66
2022/02/06 08:06:21;;;;;;;3.67;1.53;;;;;;;5.49;84.72;98181.50;5052212;28;20311;-66
2022/02/06 08:08:47;;;;;;;3.43;1.37;;;;;;;5.53;84.68;98172.56;5050803;28;20217;-65
2022/02/06 08:11:16;;;;;;;4.63;1.73;;;;;;;5.62;84.76;98179.97;5053558;28;20222;-66
2022/02/06 08:13:46;;;;;;;4.07;1.30;;;;;;;5.69;83.21;98178.75;5052832;28;20213;-66
2022/02/06 08:16:14;;;;;;;4.17;1.17;;;;;;;5.75;83.33;98167.94;5056251;28;20219;-65
2022/02/06 08:18:41;;;;;;;2.57;1.30;;;;;;;5.68;84.20;98161.31;5055940;28;20653;-66
2022/02/06 08:21:09;;;;;;;2.20;1.40;;;;;;;5.72;82.99;98149.75;5055911;28;20634;-66
2022/02/06 08:23:36;;;;;;;4.10;1.30;;;;;;;5.80;83.40;98150.25;5055761;28;20221;-66
2022/02/06 08:26:04;;;;;;;2.77;1.37;;;;;;;5.83;83.25;98154.50;5055818;28;20217;-66
2022/02/06 08:28:32;;;;;;;3.07;1.40;;;;;;;5.83;83.82;98155.38;5055663;28;20242;-67
2022/02/06 08:30:59;;;;;;;4.07;1.50;;;;;;;5.83;83.56;98160.59;5044890;28;20215;-66
2022/02/06 08:33:26;;;;;;;5.93;1.30;;;;;;;5.85;82.53;98156.13;5051694;28;20228;-65
2022/02/06 08:35:52;;;;;;;4.57;1.40;;;;;;;5.93;82.14;98146.09;5053196;28;20214;-66
2022/02/06 08:38:19;;;;;;;2.73;1.10;;;;;;;6.02;82.72;98140.38;5052965;28;20210;-66
2022/02/06 08:40:46;;;;;;;3.10;1.40;;;;;;;6.05;81.95;98140.22;5052884;28;20233;-66
2022/02/06 08:43:12;;;;;;;3.10;1.20;;;;;;;6.10;82.15;98142.63;5050367;28;21237;-67
2022/02/06 08:45:40;;;;;;;3.30;1.67;;;;;;;6.20;81.56;98128.94;5044738;28;20216;-66
2022/02/06 08:48:54;;;;;;;5.83;1.60;;;;;;;6.23;81.54;98127.94;5108709;27;20561;-63
2022/02/06 08:51:20;;;;;;;2.23;1.43;;;;;;;6.32;82.39;98123.06;5093818;28;20221;-64
2022/02/06 08:53:47;;;;;;;4.03;1.23;;;;;;;6.37;80.43;98126.31;5092855;28;20215;-63
2022/02/06 08:56:13;;;;;;;3.23;1.20;;;;;;;6.40;79.99;98125.28;5092793;28;20584;-62
2022/02/06 08:58:40;;;;;;;2.40;1.37;;;;;;;6.39;80.57;98126.19;5095821;28;20250;-64
2022/02/06 09:01:06;;;;;;;3.97;1.23;;;;;;;6.43;79.75;98125.97;5092909;28;20227;-64
2022/02/06 09:03:33;;;;;;;5.30;2.00;;;;;;;6.42;80.15;98129.50;5091911;28;20223;-63
2022/02/06 09:06:00;;;;;;;3.63;1.20;;;;;;;6.49;80.20;98136.16;5093054;28;20218;-65
2022/02/06 09:08:27;;;;;;;3.30;1.50;;;;;;;6.54;80.15;98128.84;5095484;28;20216;-64
2022/02/06 09:10:54;;;;;;;4.53;1.67;;;;;;;6.51;79.59;98123.78;5094571;28;20217;-64
2022/02/06 09:13:20;;;;;;;2.30;1.40;;;;;;;6.58;80.71;98124.28;5093763;28;20213;-64
2022/02/06 09:15:47;;;;;;;4.73;1.30;;;;;;;6.53;79.74;98126.34;5093644;28;20218;-64
2022/02/06 09:18:13;;;;;;;2.97;1.30;;;;;;;6.55;79.26;98114.81;5096556;28;20237;-65
2022/02/06 09:20:40;;;;;;;3.03;1.33;;;;;;;6.49;79.79;98117.78;5098330;28;20282;-66
2022/02/06 09:23:07;;;;;;;3.77;1.20;;;;;;;6.45;79.49;98110.97;5100019;28;20217;-66
2022/02/06 09:25:34;;;;;;;3.37;1.10;;;;;;;6.42;79.13;98103.25;5096892;28;20218;-64
2022/02/06 09:28:01;;;;;;;7.07;1.53;;;;;;;6.46;80.48;98096.94;5094767;28;20220;-65
2022/02/06 09:30:29;;;;;;;3.77;1.17;;;;;;;6.45;80.51;98097.84;5097578;28;20263;-65
2022/02/06 09:37:49;;;;;;;1.97;1.30;;;;;;;6.52;81.32;98093.13;5095898;28;20249;-65
2022/02/06 09:40:19;;;;;;;2.60;1.20;;;;;;;6.54;80.20;98094.72;5097242;28;20214;-65
2022/02/06 09:42:52;;;;;;;4.13;1.20;;;;;;;6.54;82.36;98071.09;5099943;28;20217;-65
2022/02/06 09:45:25;;;;;;;1.60;1.10;;;;;;;6.57;80.86;98077.97;5093398;28;20649;-66
2022/02/06 09:47:54;;;;;;;4.50;1.83;;;;;;;6.59;80.79;98074.31;5096212;28;20237;-66
2022/02/06 09:50:20;;;;;;;2.63;1.30;;;;;;;6.66;80.14;98062.56;5098953;28;20658;-68
2022/02/06 09:52:47;;;;;;;4.60;1.23;;;;;;;6.81;80.08;98059.09;5097384;28;20208;-68
2022/02/06 09:55:17;;;;;;;3.37;1.20;;;;;;;6.83;79.47;98056.41;5095603;28;20211;-67
2022/02/06 09:57:55;;;;;;;2.53;1.40;;;;;;;6.89;80.24;98043.75;5095904;28;20242;-66
2022/02/06 10:00:23;;;;;;;3.37;1.37;;;;;;;7.02;78.30;98029.00;5073219;28;20278;-66
2022/02/06 10:02:52;;;;;;;2.30;1.30;;;;;;;7.04;79.71;98039.41;5079313;28;20219;-66
2022/02/06 10:05:20;;;;;;;3.83;1.60;;;;;;;7.07;78.52;98031.34;5072209;28;20214;-64
2022/02/06 10:07:53;;;;;;;2.47;1.30;;;;;;;7.10;78.76;98011.03;5080044;28;20218;-65
2022/02/06 10:10:21;;;;;;;2.80;1.67;;;;;;;7.03;78.58;98020.16;5080584;28;20329;-65
2022/02/06 10:12:53;;;;;;;1.73;1.07;;;;;;;7.02;79.35;98015.03;5081653;28;20225;-64
2022/02/06 10:15:20;;;;;;;2.33;1.20;;;;;;;7.17;78.71;98004.47;5078873;28;20264;-64
2022/02/06 10:17:48;;;;;;;3.80;1.40;;;;;;;7.11;79.54;98004.81;5081404;28;20242;-66
2022/02/06 10:20:16;;;;;;;3.50;1.13;;;;;;;7.13;80.65;98005.56;5080921;28;20217;-66
2022/02/06 10:22:51;;;;;;;5.27;2.17;;;;;;;7.03;79.44;97986.00;5078903;28;20219;-67
2022/02/06 10:25:18;;;;;;;1.67;1.30;;;;;;;7.05;79.92;97981.53;5076171;28;20224;-65
2022/02/06 10:27:55;;;;;;;1.73;1.23;;;;;;;7.17;78.76;97988.72;5084145;28;20225;-66
2022/02/06 10:30:36;;;;;;;3.13;1.40;;;;;;;7.25;78.98;97975.97;5081863;28;20210;-67
2022/02/06 10:33:03;;;;;;;2.57;1.23;;;;;;;7.31;79.20;97970.34;5073754;28;20234;-66
2022/02/06 10:35:35;;;;;;;3.03;1.37;;;;;;;7.40;78.61;97961.91;5077229;28;20218;-66
2022/02/06 10:38:12;;;;;;;4.70;1.20;;;;;;;7.57;78.41;97967.00;5077461;28;20731;-66
2022/02/06 10:40:39;;;;;;;1.60;1.10;;;;;;;7.69;77.23;97963.66;5076284;28;20578;-67
2022/02/06 10:43:11;;;;;;;1.93;1.23;;;;;;;7.84;77.25;97954.84;5076805;28;20590;-67
2022/02/06 10:45:39;;;;;;;2.47;1.53;;;;;;;7.88;77.18;97948.44;5078153;28;20674;-66
2022/02/06 10:48:20;;;;;;;5.07;1.40;;;;;;;8.01;74.93;97941.47;5077946;28;20247;-66
2022/02/06 10:50:46;;;;;;;1.97;1.10;;;;;;;7.97;75.44;97929.47;5077441;28;20215;-66
2022/02/06 10:53:15;;;;;;;2.17;1.10;;;;;;;8.01;75.27;97934.44;5080201;28;20218;-66
2022/02/06 10:55:53;;;;;;;3.23;1.20;;;;;;;7.98;75.18;97920.63;5078509;28;20210;-66
2022/02/06 10:58:27;;;;;;;1.33;1.00;;;;;;;7.95;75.69;97912.94;5069848;28;20484;-67
2022/02/06 11:00:53;;;;;;;2.73;1.10;;;;;;;7.95;75.36;97899.78;5078562;28;20692;-66
2022/02/06 11:03:24;;;;;;;2.17;1.00;;;;;;;7.94;75.43;97898.06;5080624;28;20223;-67
2022/02/06 11:05:52;;;;;;;2.83;1.10;;;;;;;7.92;76.16;97884.16;5077690;28;20258;-67
2022/02/06 11:08:29;;;;;;;4.53;1.40;;;;;;;7.98;75.45;97884.63;5077462;28;20221;-67
2022/02/06 11:11:00;;;;;;;1.83;1.07;;;;;;;8.02;76.32;97858.97;5079210;28;20221;-67
2022/02/06 11:13:28;;;;;;;1.73;0.90;;;;;;;7.94;75.58;97861.22;5075419;28;20702;-67
2022/02/06 11:15:58;;;;;;;1.63;1.00;;;;;;;7.95;76.28;97873.47;5077396;28;20219;-67
2022/02/06 11:18:28;;;;;;;1.40;0.83;;;;;;;7.98;76.26;97868.00;5075337;28;20660;-67
2022/02/06 11:20:57;;;;;;;2.17;1.10;;;;;;;7.97;75.54;97845.25;5074159;28;20228;-66
2022/02/06 11:23:24;;;;;;;1.50;1.00;;;;;;;8.00;75.44;97855.56;5073828;28;20219;-66
2022/02/06 11:25:52;;;;;;;1.60;0.90;;;;;;;7.87;75.83;97849.38;5076383;28;20204;-66
2022/02/06 11:28:18;;;;;;;2.20;1.00;;;;;;;7.92;77.56;97849.94;5070677;28;20218;-65
2022/02/06 11:30:46;;;;;;;2.07;0.80;;;;;;;7.87;77.13;97838.88;5064587;28;20222;-65
2022/02/06 11:33:13;;;;;;;1.90;1.00;;;;;;;7.90;78.20;97833.44;5082159;28;20217;-65
2022/02/06 11:35:43;;;;;;;3.17;0.90;;;;;;;8.02;78.85;97837.91;5078850;28;20239;-66
2022/02/06 11:44:16;;;;;;;3.37;1.10;;;;;;;8.06;79.51;97810.44;5074936;28;20221;-66
2022/02/06 11:46:51;;;;;;;1.80;0.93;;;;;;;8.03;80.85;97810.66;5072145;28;20215;-66
2022/02/06 11:49:19;;;;;;;3.37;2.20;;;;;;;8.06;80.81;97797.28;5077954;28;20559;-66
2022/02/06 11:51:57;;;;;;;1.87;0.93;;;;;;;8.08;82.08;97787.53;5078676;28;20225;-66
2022/02/06 11:54:31;;;;;;;3.00;1.00;;;;;;;8.00;81.55;97774.00;5069040;28;20638;-66
2022/02/06 11:57:22;;;;;;;1.10;0.77;;;;;;;8.08;81.25;97771.72;5079812;28;20572;-66
2022/02/06 12:00:20;;;;;;;1.77;1.10;;;;;;;8.02;79.94;97764.22;5070389;28;20207;-65
2022/02/06 12:02:50;;;;;;;1.63;1.00;;;;;;;8.08;81.07;97769.91;5081122;28;20214;-65
2022/02/06 12:05:24;;;;;;;1.60;0.73;;;;;;;8.15;81.90;97751.97;5075969;28;20422;-66
2022/02/06 12:08:04;;;;;;;3.67;1.20;;;;;;;8.20;81.22;97745.47;5080499;28;20246;-66
2022/02/06 12:11:14;;;;;;;1.23;0.97;;;;;;;8.28;80.27;97739.69;5081139;28;20260;-66
2022/02/06 12:13:42;;;;;;;1.53;0.90;;;;;;;8.35;79.92;97738.34;5075393;28;20208;-66
2022/02/06 12:16:20;;;;;;;1.53;0.80;;;;;;;8.42;78.67;97715.91;5082541;28;20246;-66
2022/02/06 12:18:47;;;;;;;1.60;0.80;;;;;;;8.41;78.61;97701.06;5077304;28;20238;-66
2022/02/06 12:21:18;;;;;;;0.70;0.70;;;;;;;8.30;77.53;97695.69;5078416;28;20226;-66
2022/02/06 12:23:49;;;;;;;1.07;0.70;;;;;;;8.30;77.83;97683.38;5081606;28;20218;-67
2022/02/06 12:26:41;;;;;;;1.50;0.73;;;;;;;8.19;77.36;97677.09;5080649;28;20218;-67
2022/02/06 12:29:10;;;;;;;1.03;0.60;;;;;;;8.33;78.91;97674.44;5073259;28;20302;-67
2022/02/06 12:31:47;;;;;;;0.70;0.60;;;;;;;8.37;76.70;97668.00;5082264;28;20246;-67
2022/02/06 12:37:22;;;;;;;1.60;0.67;;;;;;;8.43;75.79;97630.69;5078068;28;20207;-67
2022/02/06 12:39:50;;;;;;;1.70;0.60;;;;;;;8.45;75.51;97647.25;5082637;28;20238;-67
2022/02/06 12:42:26;;;;;;;1.20;0.70;;;;;;;8.47;76.39;97640.94;5079692;28;20223;-67
2022/02/06 12:44:54;;;;;;;2.77;0.70;;;;;;;8.47;76.49;97629.56;5078787;28;20207;-67
2022/02/06 12:47:21;;;;;;;0.70;0.70;;;;;;;8.42;74.74;97632.50;5081789;28;20253;-67
2022/02/06 12:49:48;;;;;;;0.77;0.63;;;;;;;8.42;76.23;97643.03;5082248;28;20211;-67
2022/02/06 12:52:15;;;;;;;0.97;0.77;;;;;;;8.52;78.32;97622.19;5075630;28;20683;-68
2022/02/06 12:54:42;;;;;;;0.90;0.70;;;;;;;8.52;77.09;97623.00;5080877;28;20586;-67
2022/02/06 12:57:09;;;;;;;1.43;0.80;;;;;;;8.45;77.07;97615.66;5077806;28;20215;-67
2022/02/06 12:59:39;;;;;;;0.90;0.63;;;;;;;8.45;77.04;97618.28;5075168;28;20275;-67
2022/02/06 13:02:07;;;;;;;1.83;1.03;;;;;;;8.37;79.07;97597.75;5077414;28;20220;-68
2022/02/06 13:04:41;;;;;;;1.00;0.80;;;;;;;8.21;79.87;97593.66;5080711;28;20219;-67
2022/02/06 13:07:11;;;;;;;0.97;0.77;;;;;;;8.10;80.31;97590.88;5068854;28;20212;-67
2022/02/06 13:09:41;;;;;;;6.53;1.00;;;;;;;8.06;80.35;97592.88;5076743;28;20758;-67
2022/02/06 13:12:21;;;;;;;1.77;0.90;;;;;;;8.07;80.47;97591.06;5079808;28;20272;-67
2022/02/06 13:15:00;;;;;;;1.10;0.90;;;;;;;8.13;82.85;97588.88;5078136;28;20214;-67